Terminal Aerodrome Forecast
Issued by NWS Corpus Christi, TX

Home | Current Version | Previous Version | Text Only | Print | Product List | Glossary On
Versions: 1 2 3 4 5 6 7 8 9 10 11 12 13 14 15 16 17
000
FTUS44 KCRP 191755 CCA
TAFCRP
TAF COR
KCRP 191755Z 1918/2018 14022G28KT P6SM BKN020
      TEMPO 1918/1919 BKN017
     FM192200 14020G25KT P6SM BKN035
     FM200100 14014KT P6SM BKN022
     FM200700 12006KT 5SM SHRA BR VCTS BKN015 BKN022CB
      TEMPO 2007/2009 VRB15G25KT 2SM TSRA BR BKN022CB
     FM201200 12005KT 6SM -SHRA BR BKN022
     FM201500 28004KT P6SM BKN020=

USA.gov is the U.S. government's official web portal to all federal, state and local government web resources and services.